Greifswald — 3FEC8 — position and weather

sailwx.info

Track history (hours):
 
Tides and Currents Weather Stations Pressure Air Temp Water Temp Dewpoint Dewpoint Depression Visibility Wind Speed Wind Dir Waves Ship Positions

Greifswald

Last reported at 2016-May-26 20:32 UTC. Time now 2016-May-27 04:34 UTC.
Position N 45°57' E 030°44'.

Length 191 m; draft 6 m.

Type: Ship. MMSI: 370492000.

Date/timePositionNaut miles runAvg speedWind from/ knotsBaromVisibWave heightAir tempDewpointWater temp
2016-May-26 20:32N 45°57' E 030°44'1212.7
2016-May-26 19:34N 46°10' E 030°46'1111.0
2016-May-26 18:34N 46°20' E 030°40'1 0.9
2016-May-26 17:34N 46°21' E 030°39'0 0.0
2016-May-26 16:34N 46°21' E 030°39'0 0.0
2016-May-26 15:34N 46°21' E 030°39'0 0.0
2016-May-26 14:34N 46°21' E 030°39'0 0.0
2016-May-26 13:34N 46°21' E 030°39'0 0.0
2016-May-26 12:34N 46°21' E 030°39'0 0.0
2016-May-26 11:34N 46°21' E 030°39'0 0.0
2016-May-26 10:34N 46°21' E 030°39'0 0.0
2016-May-26 09:34N 46°21' E 030°39'0 0.0
2016-May-26 08:34N 46°21' E 030°39'0 0.0
2016-May-26 07:34N 46°21' E 030°39'0 0.0
2016-May-26 06:34N 46°21' E 030°39'0 0.0
2016-May-26 05:34N 46°21' E 030°39'0 0.0
2016-May-26 04:34N 46°21' E 030°39'0 0.2
2016-May-26 03:34N 46°20' E 030°39'7 7.4
2016-May-26 02:33N 46°18' E 030°49'6 5.9
2016-May-26 01:33N 46°16' E 030°57'6 6.3
2016-May-26 00:33N 46°12' E 031°04'7 6.4
2016-May-25 23:30N 46°07' E 031°11'6 6.3
2016-May-25 22:33N 46°03' E 031°16'106 7.0
2016-May-25 07:20N 44°43' E 032°57'8 9.7
2016-May-25 06:33N 44°38' E 033°04'1111.4
2016-May-25 05:33N 44°29' E 033°14'3611.6
2016-May-25 02:24N 44°06' E 033°54'3311.7
2016-May-24 23:33N 43°53' E 034°37'1211.9
2016-May-24 22:33N 43°48' E 034°52'1211.7
2016-May-24 21:33N 43°44' E 035°07'1111.6
2016-May-24 20:33N 43°39' E 035°21'5611.1
2016-May-24 15:32N 43°17' E 036°32'1111.0
2016-May-24 14:32N 43°13' E 036°46'  
2016-May-19 07:25N 44°23' E 033°18'1213.1
2016-May-19 06:31N 44°32' E 033°07'12712.8
2016-May-18 20:33N 46°06' E 031°06'1313.2
2016-May-18 19:33N 46°15' E 030°53'1110.7
2016-May-18 18:33N 46°21' E 030°39'136 3.7
2016-May-17 05:28N 44°44' E 032°55'1011.4
2016-May-17 04:33N 44°37' E 033°05'1111.3
2016-May-17 03:34N 44°28' E 033°16'5611.0
2016-May-16 22:31N 43°58' E 034°21'1211.1
2016-May-16 21:25N 43°53' E 034°36'  
Track history (hours):
 
Tides and Currents Weather Stations Pressure Air Temp Water Temp Dewpoint Dewpoint Depression Visibility Wind Speed Wind Dir Waves Ship Positions

Greifswald

Last reported at 2016-May-26 20:32 UTC. Time now 2016-May-27 04:34 UTC.
Position N 45°57' E 030°44'.

Length 191 m; draft 6 m.

Type: Ship. MMSI: 370492000.

Date/timePositionNaut miles runAvg speedWind from/ knotsBaromVisibWave heightAir tempDewpointWater temp
2016-May-26 20:32N 45°57' E 030°44'1212.7
2016-May-26 19:34N 46°10' E 030°46'1111.0
2016-May-26 18:34N 46°20' E 030°40'1 0.9
2016-May-26 17:34N 46°21' E 030°39'0 0.0
2016-May-26 16:34N 46°21' E 030°39'0 0.0
2016-May-26 15:34N 46°21' E 030°39'0 0.0
2016-May-26 14:34N 46°21' E 030°39'0 0.0
2016-May-26 13:34N 46°21' E 030°39'0 0.0
2016-May-26 12:34N 46°21' E 030°39'0 0.0
2016-May-26 11:34N 46°21' E 030°39'0 0.0
2016-May-26 10:34N 46°21' E 030°39'0 0.0
2016-May-26 09:34N 46°21' E 030°39'0 0.0
2016-May-26 08:34N 46°21' E 030°39'0 0.0
2016-May-26 07:34N 46°21' E 030°39'0 0.0
2016-May-26 06:34N 46°21' E 030°39'0 0.0
2016-May-26 05:34N 46°21' E 030°39'0 0.0
2016-May-26 04:34N 46°21' E 030°39'0 0.2
2016-May-26 03:34N 46°20' E 030°39'7 7.4
2016-May-26 02:33N 46°18' E 030°49'6 5.9
2016-May-26 01:33N 46°16' E 030°57'6 6.3
2016-May-26 00:33N 46°12' E 031°04'7 6.4
2016-May-25 23:30N 46°07' E 031°11'6 6.3
2016-May-25 22:33N 46°03' E 031°16'106 7.0
2016-May-25 07:20N 44°43' E 032°57'8 9.7
2016-May-25 06:33N 44°38' E 033°04'1111.4
2016-May-25 05:33N 44°29' E 033°14'3611.6
2016-May-25 02:24N 44°06' E 033°54'3311.7
2016-May-24 23:33N 43°53' E 034°37'1211.9
2016-May-24 22:33N 43°48' E 034°52'1211.7
2016-May-24 21:33N 43°44' E 035°07'1111.6
2016-May-24 20:33N 43°39' E 035°21'5611.1
2016-May-24 15:32N 43°17' E 036°32'1111.0
2016-May-24 14:32N 43°13' E 036°46'  
2016-May-19 07:25N 44°23' E 033°18'1213.1
2016-May-19 06:31N 44°32' E 033°07'12712.8
2016-May-18 20:33N 46°06' E 031°06'1313.2
2016-May-18 19:33N 46°15' E 030°53'1110.7
2016-May-18 18:33N 46°21' E 030°39'136 3.7
2016-May-17 05:28N 44°44' E 032°55'1011.4
2016-May-17 04:33N 44°37' E 033°05'1111.3
2016-May-17 03:34N 44°28' E 033°16'5611.0
2016-May-16 22:31N 43°58' E 034°21'1211.1
2016-May-16 21:25N 43°53' E 034°36'  

Dump ship's entire track history